Time;durP1;ratioP1;P1;durP2;ratioP2;P2;SDS_P1;SDS_P2;PMS_P1;PMS_P2;Temp;Humidity;BMP_temperature;BMP_pressure;BME280_temperature;BME280_humidity;BME280_pressure;Samples;Min_cycle;Max_cycle;Signal;HPM_P1;HPM_P2
2021/09/13 00:01:21;;;;;;;;;;;;;;;14.20;100.00;100968.38;5090471;28;19928;-64
2021/09/13 00:03:49;;;;;;;;;;;;;;;14.12;100.00;100969.09;5090532;28;20345;-65
2021/09/13 00:06:17;;;;;;;;;;;;;;;14.06;100.00;100969.69;5090723;28;20288;-65
2021/09/13 00:08:43;;;;;;;;;;;;;;;13.96;100.00;100966.91;5090533;28;20356;-64
2021/09/13 00:11:09;;;;;;;;;;;;;;;13.86;100.00;100968.78;5091334;28;20014;-64
2021/09/13 00:13:36;;;;;;;;;;;;;;;13.75;100.00;100974.34;5094833;28;20319;-64
2021/09/13 00:16:06;;;;;;;;;;;;;;;13.66;100.00;100966.00;5094194;28;19928;-64
2021/09/13 00:18:32;;;;;;;;;;;;;;;13.60;100.00;100966.53;5076136;28;19924;-65
2021/09/13 00:21:00;;;;;;;;;;;;;;;13.54;100.00;100970.69;5094204;28;19932;-64
2021/09/13 00:23:27;;;;;;;;;;;;;;;13.48;100.00;100971.25;5094057;28;20022;-64
2021/09/13 00:25:54;;;;;;;;;;;;;;;13.44;100.00;100964.34;5094514;28;20049;-65
2021/09/13 00:28:21;;;;;;;;;;;;;;;13.44;100.00;100969.81;5075517;28;20407;-65
2021/09/13 00:30:48;;;;;;;;;;;;;;;13.36;100.00;100964.16;5076370;28;19970;-65
2021/09/13 00:33:16;;;;;;;;;;;;;;;13.34;100.00;100968.88;5076059;28;19955;-64
2021/09/13 00:35:42;;;;;;;;;;;;;;;13.33;100.00;100969.84;5075960;28;19960;-65
2021/09/13 00:38:10;;;;;;;;;;;;;;;13.33;100.00;100972.59;5093784;28;19923;-64
2021/09/13 00:40:39;;;;;;;;;;;;;;;13.38;100.00;100973.06;5093510;28;19924;-64
2021/09/13 00:43:06;;;;;;;;;;;;;;;13.36;100.00;100983.25;5093826;28;19934;-64
2021/09/13 00:45:32;;;;;;;;;;;;;;;13.29;100.00;100973.84;5093386;28;19924;-65
2021/09/13 00:47:58;;;;;;;;;;;;;;;13.27;100.00;100975.84;5058882;28;20019;-64
2021/09/13 00:50:25;;;;;;;;;;;;;;;13.27;100.00;100978.56;5059187;28;20384;-64
2021/09/13 00:52:52;;;;;;;;;;;;;;;13.34;100.00;100974.31;5075477;28;19977;-65
2021/09/13 00:55:20;;;;;;;;;;;;;;;13.35;100.00;100982.34;5093712;28;19931;-64
2021/09/13 00:57:47;;;;;;;;;;;;;;;13.36;100.00;100969.59;5093013;28;19924;-64
2021/09/13 01:00:14;;;;;;;;;;;;;;;13.33;100.00;100976.16;5075676;28;19970;-65
2021/09/13 01:02:41;;;;;;;;;;;;;;;13.31;100.00;100975.44;5075647;28;19939;-66
2021/09/13 01:05:07;;;;;;;;;;;;;;;13.34;100.00;100964.25;5093453;28;19924;-64
2021/09/13 01:07:34;;;;;;;;;;;;;;;13.33;100.00;100967.13;5075442;28;19928;-64
2021/09/13 01:10:01;;;;;;;;;;;;;;;13.34;100.00;100967.00;5075286;28;19928;-64
2021/09/13 01:12:28;;;;;;;;;;;;;;;13.32;100.00;100963.56;5075631;28;20349;-65
2021/09/13 01:14:55;;;;;;;;;;;;;;;13.29;100.00;100971.13;5075172;28;20000;-64
2021/09/13 01:17:21;;;;;;;;;;;;;;;13.23;100.00;100967.94;5074036;28;20400;-65
2021/09/13 01:19:48;;;;;;;;;;;;;;;13.18;100.00;100962.03;5075311;28;19925;-64
2021/09/13 01:22:17;;;;;;;;;;;;;;;13.18;100.00;100967.50;5074910;28;19924;-64
2021/09/13 01:24:57;;;;;;;;;;;;;;;13.12;100.00;100967.16;5075349;28;19928;-64
2021/09/13 01:27:24;;;;;;;;;;;;;;;13.04;100.00;100960.53;5074659;28;19928;-64
2021/09/13 01:29:52;;;;;;;;;;;;;;;12.98;100.00;100962.94;5075194;28;20014;-64
2021/09/13 01:32:18;;;;;;;;;;;;;;;12.91;100.00;100968.06;5075193;28;20387;-64
2021/09/13 01:34:55;;;;;;;;;;;;;;;12.86;100.00;100967.59;5057987;28;20280;-64
2021/09/13 01:37:24;;;;;;;;;;;;;;;12.88;100.00;100971.91;5074587;28;19931;-64
2021/09/13 01:39:52;;;;;;;;;;;;;;;12.94;100.00;100972.38;5074619;28;19924;-65
2021/09/13 01:42:20;;;;;;;;;;;;;;;13.01;100.00;100968.13;5093061;28;19928;-64
2021/09/13 01:44:46;;;;;;;;;;;;;;;13.05;100.00;100970.44;5074725;28;19931;-64
2021/09/13 01:47:19;;;;;;;;;;;;;;;13.11;100.00;100974.50;5074776;28;19930;-64
2021/09/13 01:49:48;;;;;;;;;;;;;;;13.17;100.00;100970.34;5074880;28;19924;-64
2021/09/13 01:52:14;;;;;;;;;;;;;;;13.21;100.00;100975.41;5057822;28;19924;-65
2021/09/13 01:54:42;;;;;;;;;;;;;;;13.25;100.00;100977.84;5074264;28;19924;-65
2021/09/13 01:57:11;;;;;;;;;;;;;;;13.25;100.00;100975.13;5074211;28;20392;-65
2021/09/13 01:59:40;;;;;;;;;;;;;;;13.21;100.00;100980.88;5074650;28;19924;-65
2021/09/13 02:02:08;;;;;;;;;;;;;;;13.23;100.00;100984.31;5074352;28;19924;-65
2021/09/13 02:04:36;;;;;;;;;;;;;;;13.26;100.00;100982.31;5074321;28;20014;-64
2021/09/13 02:07:02;;;;;;;;;;;;;;;13.27;100.00;100979.44;5074129;28;19974;-64
2021/09/13 02:09:28;;;;;;;;;;;;;;;13.34;100.00;100985.22;5092126;28;19970;-64
2021/09/13 02:11:55;;;;;;;;;;;;;;;13.36;100.00;100986.84;5074484;28;19970;-66
2021/09/13 02:14:26;;;;;;;;;;;;;;;13.41;100.00;100991.03;5073205;28;19924;-65
2021/09/13 02:16:55;;;;;;;;;;;;;;;13.39;100.00;100992.03;5073870;28;19934;-65
2021/09/13 02:19:22;;;;;;;;;;;;;;;13.37;100.00;100994.03;5092140;28;19932;-64
2021/09/13 02:21:49;;;;;;;;;;;;;;;13.38;100.00;100992.16;5073797;28;19930;-65
2021/09/13 02:24:16;;;;;;;;;;;;;;;13.38;100.00;100992.16;5074103;28;19959;-65
2021/09/13 02:26:44;;;;;;;;;;;;;;;13.37;100.00;100993.16;5073366;28;20026;-65
2021/09/13 02:29:10;;;;;;;;;;;;;;;13.35;100.00;100992.41;5091252;28;19989;-64
2021/09/13 02:31:36;;;;;;;;;;;;;;;13.30;100.00;100991.94;5091847;28;19928;-65
2021/09/13 02:34:04;;;;;;;;;;;;;;;13.23;100.00;100988.91;5072554;28;20339;-65
2021/09/13 02:36:32;;;;;;;;;;;;;;;13.16;100.00;100987.69;5073863;28;19931;-64
2021/09/13 02:38:59;;;;;;;;;;;;;;;13.11;100.00;100995.41;5073352;28;20445;-65
2021/09/13 02:41:25;;;;;;;;;;;;;;;13.09;100.00;100990.09;5073356;28;20019;-65
2021/09/13 02:43:52;;;;;;;;;;;;;;;13.04;100.00;100992.38;5073757;28;20380;-64
2021/09/13 02:46:20;;;;;;;;;;;;;;;12.99;100.00;100997.38;5073362;28;20037;-64
2021/09/13 02:48:49;;;;;;;;;;;;;;;12.92;100.00;100994.31;5073168;28;19924;-65
2021/09/13 02:51:20;;;;;;;;;;;;;;;12.90;100.00;100991.72;5073363;28;19963;-65
2021/09/13 02:53:46;;;;;;;;;;;;;;;12.86;100.00;100992.97;5073645;28;19934;-65
2021/09/13 02:56:13;;;;;;;;;;;;;;;12.86;100.00;100992.13;5073258;28;20041;-64
2021/09/13 02:58:44;;;;;;;;;;;;;;;12.83;100.00;100985.06;5073160;28;19924;-64
2021/09/13 03:01:11;;;;;;;;;;;;;;;12.79;100.00;100996.38;5073428;28;19924;-64
2021/09/13 03:03:38;;;;;;;;;;;;;;;12.72;100.00;100991.47;5073056;28;19924;-65
2021/09/13 03:06:06;;;;;;;;;;;;;;;12.65;100.00;100997.56;5073122;28;20414;-65
2021/09/13 03:08:34;;;;;;;;;;;;;;;12.61;100.00;100993.38;5090946;28;19924;-64
2021/09/13 03:11:00;;;;;;;;;;;;;;;12.65;100.00;101000.28;5073373;28;19946;-65
2021/09/13 03:13:26;;;;;;;;;;;;;;;12.71;100.00;101003.34;5073554;28;20347;-65
2021/09/13 03:15:53;;;;;;;;;;;;;;;12.72;100.00;100996.06;5073044;28;19925;-65
2021/09/13 03:18:20;;;;;;;;;;;;;;;12.72;100.00;101010.53;5072918;28;19924;-65
2021/09/13 03:20:47;;;;;;;;;;;;;;;12.73;100.00;101003.19;5091056;28;19928;-65
2021/09/13 03:23:14;;;;;;;;;;;;;;;12.71;100.00;100997.03;5073207;28;20359;-65
2021/09/13 03:25:42;;;;;;;;;;;;;;;12.73;100.00;100997.75;5090685;28;19931;-65
2021/09/13 03:28:09;;;;;;;;;;;;;;;12.75;100.00;101003.94;5072808;28;19924;-65
2021/09/13 03:30:38;;;;;;;;;;;;;;;12.80;100.00;101006.25;5073291;28;20026;-65
2021/09/13 03:33:04;;;;;;;;;;;;;;;12.84;100.00;101007.72;5072888;28;19924;-65
2021/09/13 03:35:30;;;;;;;;;;;;;;;12.88;100.00;101011.91;5091272;28;20363;-65
2021/09/13 03:37:59;;;;;;;;;;;;;;;12.93;100.00;101008.81;5072701;28;19924;-65
2021/09/13 03:40:26;;;;;;;;;;;;;;;13.00;100.00;101009.97;5073037;28;20283;-65
2021/09/13 03:42:54;;;;;;;;;;;;;;;13.05;100.00;101016.78;5073060;28;19932;-65
2021/09/13 03:45:20;;;;;;;;;;;;;;;13.09;100.00;101022.81;5072467;28;19939;-65
2021/09/13 03:48:14;;;;;;;;;;;;;;;13.12;100.00;101017.09;5070963;28;19924;-65
2021/09/13 03:50:45;;;;;;;;;;;;;;;13.17;100.00;101016.69;5076811;28;20022;-65
2021/09/13 03:53:11;;;;;;;;;;;;;;;13.18;100.00;101021.16;5077054;28;19924;-65
2021/09/13 03:55:38;;;;;;;;;;;;;;;13.19;100.00;101020.16;5076891;28;19935;-65
2021/09/13 03:58:07;;;;;;;;;;;;;;;13.15;100.00;101011.38;5076436;28;20065;-65
2021/09/13 04:00:34;;;;;;;;;;;;;;;13.13;100.00;101012.50;5077259;28;20010;-65
2021/09/13 04:03:04;;;;;;;;;;;;;;;13.10;100.00;101010.91;5076118;28;20395;-65
2021/09/13 04:05:31;;;;;;;;;;;;;;;13.06;100.00;101015.75;5076783;28;19963;-65
2021/09/13 04:08:30;;;;;;;;;;;;;;;13.02;100.00;101011.56;5094258;28;19924;-65
2021/09/13 04:11:21;;;;;;;;;;;;;;;12.94;100.00;101005.09;5077092;28;19932;-65
2021/09/13 04:14:11;;;;;;;;;;;;;;;12.89;100.00;101016.38;5076314;28;19931;-65
2021/09/13 04:16:42;;;;;;;;;;;;;;;12.83;100.00;101017.78;5076421;28;19928;-65
2021/09/13 04:19:29;;;;;;;;;;;;;;;12.76;100.00;101018.41;5076382;28;19998;-65
2021/09/13 04:22:10;;;;;;;;;;;;;;;12.66;100.00;101019.22;5076572;28;19924;-65
2021/09/13 04:24:44;;;;;;;;;;;;;;;12.59;100.00;101022.56;5076707;28;19924;-65
2021/09/13 04:27:31;;;;;;;;;;;;;;;12.52;100.00;101024.97;5076255;28;19924;-65
2021/09/13 04:30:25;;;;;;;;;;;;;;;12.46;100.00;101025.50;5059799;28;20422;-65
2021/09/13 04:33:10;;;;;;;;;;;;;;;12.41;100.00;101028.59;5094153;28;19938;-65
2021/09/13 04:35:55;;;;;;;;;;;;;;;12.36;100.00;101026.28;5094550;28;20461;-65
2021/09/13 04:38:36;;;;;;;;;;;;;;;12.33;100.00;101028.38;5075594;28;19954;-64
2021/09/13 04:41:23;;;;;;;;;;;;;;;12.34;100.00;101030.13;5094716;28;19931;-65
2021/09/13 04:44:07;;;;;;;;;;;;;;;12.38;100.00;101026.13;5093664;28;19947;-64
2021/09/13 04:46:51;;;;;;;;;;;;;;;12.44;100.00;101031.06;5071489;28;19928;-64
2021/09/13 04:49:32;;;;;;;;;;;;;;;12.50;100.00;101035.13;5093411;28;19931;-64
2021/09/13 04:51:59;;;;;;;;;;;;;;;12.54;100.00;101037.44;5094079;28;19927;-67
2021/09/13 04:54:30;;;;;;;;;;;;;;;12.56;100.00;101043.66;5075905;28;19935;-65
2021/09/13 04:56:58;;;;;;;;;;;;;;;12.56;100.00;101040.91;5074700;28;19950;-66
2021/09/13 04:59:24;;;;;;;;;;;;;;;12.53;100.00;101043.91;5075437;28;19939;-66
2021/09/13 05:01:52;;;;;;;;;;;;;;;12.51;100.00;101036.88;5075359;28;19924;-66
2021/09/13 05:04:20;;;;;;;;;;;;;;;12.47;100.00;101030.81;5075687;28;20358;-66
2021/09/13 05:06:48;;;;;;;;;;;;;;;12.48;100.00;101035.28;5093689;28;19941;-67
2021/09/13 05:09:15;;;;;;;;;;;;;;;12.47;100.00;101028.09;5074747;28;19924;-66
2021/09/13 05:11:42;;;;;;;;;;;;;;;12.49;100.00;101033.41;5074972;28;19925;-66
2021/09/13 05:14:13;;;;;;;;;;;;;;;12.51;100.00;101031.41;5073067;28;19931;-66
2021/09/13 05:16:40;;;;;;;;;;;;;;;12.55;100.00;101033.75;5066024;28;20403;-66
2021/09/13 05:19:07;;;;;;;;;;;;;;;12.62;100.00;101038.69;5072112;28;20280;-66
2021/09/13 05:21:38;;;;;;;;;;;;;;;12.74;100.00;101043.06;5074958;28;19970;-66
2021/09/13 05:24:05;;;;;;;;;;;;;;;12.90;100.00;101037.16;5075114;28;20396;-66
2021/09/13 05:26:31;;;;;;;;;;;;;;;13.08;100.00;101040.19;5074594;28;19943;-66
2021/09/13 05:28:58;;;;;;;;;;;;;;;13.26;100.00;101034.97;5093213;28;19952;-66
2021/09/13 05:31:24;;;;;;;;;;;;;;;13.47;100.00;101034.97;5075339;28;19931;-66
2021/09/13 05:33:50;;;;;;;;;;;;;;;13.66;100.00;101020.53;5074873;28;19924;-66
2021/09/13 05:36:19;;;;;;;;;;;;;;;13.94;100.00;101020.78;5068154;28;19934;-66
2021/09/13 05:38:46;;;;;;;;;;;;;;;14.17;100.00;101024.13;5064258;28;19928;-66
2021/09/13 05:41:30;;;;;;;;;;;;;;;14.32;100.00;101021.00;5066502;28;20349;-67
2021/09/13 05:43:56;;;;;;;;;;;;;;;14.46;100.00;101017.00;5068193;28;19931;-67
2021/09/13 05:46:23;;;;;;;;;;;;;;;14.60;100.00;101016.53;5074781;28;19931;-67
2021/09/13 05:48:49;;;;;;;;;;;;;;;14.71;100.00;101010.09;5108620;28;20421;-67
2021/09/13 05:51:15;;;;;;;;;;;;;;;14.76;100.00;101015.16;5073359;28;20590;-67
2021/09/13 05:53:43;;;;;;;;;;;;;;;14.81;100.00;101012.84;5092976;28;19924;-67
2021/09/13 05:56:10;;;;;;;;;;;;;;;14.98;100.00;101020.31;5073781;28;20382;-67
2021/09/13 05:58:37;;;;;;;;;;;;;;;15.07;100.00;101003.03;5074164;28;19928;-67
2021/09/13 06:01:04;;;;;;;;;;;;;;;15.34;100.00;101001.34;5074448;28;19924;-67
2021/09/13 06:03:31;;;;;;;;;;;;;;;15.60;100.00;100994.34;5041143;28;19924;-67
2021/09/13 06:06:04;;;;;;;;;;;;;;;15.67;100.00;100992.72;5073392;28;19924;-67
2021/09/13 06:08:32;;;;;;;;;;;;;;;15.67;100.00;100987.25;5071726;28;19954;-67
2021/09/13 06:10:59;;;;;;;;;;;;;;;15.80;100.00;100993.25;5071523;28;19924;-67
2021/09/13 06:13:26;;;;;;;;;;;;;;;15.84;100.00;100994.66;5092338;28;19932;-67
2021/09/13 06:15:53;;;;;;;;;;;;;;;16.02;100.00;100991.09;5073741;28;20043;-67
2021/09/13 06:18:19;;;;;;;;;;;;;;;16.00;100.00;100988.53;5073685;28;19932;-66
2021/09/13 06:20:45;;;;;;;;;;;;;;;16.02;100.00;100992.00;5073639;28;19932;-66
2021/09/13 06:23:12;;;;;;;;;;;;;;;16.15;100.00;100999.81;5105307;28;20440;-67
2021/09/13 06:25:39;;;;;;;;;;;;;;;16.37;100.00;100992.19;5071968;28;19942;-66
2021/09/13 06:28:07;;;;;;;;;;;;;;;16.62;100.00;100986.91;5071553;28;20291;-66
2021/09/13 06:30:34;;;;;;;;;;;;;;;16.78;100.00;100997.16;5072129;28;19943;-67
2021/09/13 06:33:03;;;;;;;;;;;;;;;16.84;100.00;100991.91;5072059;28;19963;-67
2021/09/13 06:35:35;;;;;;;;;;;;;;;16.93;100.00;101000.22;5072161;28;20413;-66
2021/09/13 06:38:04;;;;;;;;;;;;;;;17.06;100.00;100995.16;5071907;28;19931;-67
2021/09/13 06:40:31;;;;;;;;;;;;;;;17.21;100.00;100999.06;5073575;28;19928;-67
2021/09/13 06:42:59;;;;;;;;;;;;;;;17.39;100.00;100998.13;5073823;28;19928;-67
2021/09/13 06:45:27;;;;;;;;;;;;;;;17.40;100.00;100997.97;5073118;28;19924;-67
2021/09/13 06:47:53;;;;;;;;;;;;;;;17.78;100.00;100999.50;5091496;28;19924;-67
2021/09/13 06:50:21;;;;;;;;;;;;;;;18.14;100.00;101013.06;5073531;28;19977;-67
2021/09/13 06:52:49;;;;;;;;;;;;;;;17.74;100.00;101020.94;5073606;28;19932;-67
2021/09/13 06:55:16;;;;;;;;;;;;;;;17.96;100.00;101019.53;5072112;28;19931;-67
2021/09/13 06:57:43;;;;;;;;;;;;;;;17.73;100.00;101019.22;5091085;28;19967;-66
2021/09/13 07:00:10;;;;;;;;;;;;;;;18.06;100.00;101022.13;5072717;28;20185;-67
2021/09/13 07:02:39;;;;;;;;;;;;;;;18.01;100.00;101021.75;5090950;28;20015;-67
2021/09/13 07:05:06;;;;;;;;;;;;;;;18.31;100.00;101024.94;5091181;28;19924;-67
2021/09/13 07:07:32;;;;;;;;;;;;;;;18.68;100.00;101027.25;5091090;28;20015;-66
2021/09/13 07:09:58;;;;;;;;;;;;;;;19.03;100.00;101019.69;5090896;28;19925;-67
2021/09/13 07:12:26;;;;;;;;;;;;;;;19.56;100.00;101025.63;5090812;28;19936;-67
2021/09/13 07:14:53;;;;;;;;;;;;;;;19.64;100.00;101021.13;5090618;28;19923;-67
2021/09/13 07:17:20;;;;;;;;;;;;;;;20.08;100.00;101017.84;5090504;28;20014;-66
2021/09/13 07:19:51;;;;;;;;;;;;;;;20.56;100.00;101018.63;5090633;28;20027;-67
2021/09/13 07:22:17;;;;;;;;;;;;;;;20.34;100.00;101019.44;5089523;28;19981;-66
2021/09/13 07:24:44;;;;;;;;;;;;;;;20.51;100.00;101021.06;5072749;28;19924;-66
2021/09/13 07:27:10;;;;;;;;;;;;;;;20.41;100.00;101025.94;5090843;28;20019;-66
2021/09/13 07:29:37;;;;;;;;;;;;;;;20.38;100.00;101024.41;5091086;28;19924;-66
2021/09/13 07:32:03;;;;;;;;;;;;;;;20.54;100.00;101025.34;5091063;28;20018;-66
2021/09/13 07:34:30;;;;;;;;;;;;;;;19.87;100.00;101026.75;5090785;28;19946;-66
2021/09/13 07:36:58;;;;;;;;;;;;;;;19.94;100.00;101018.63;5090965;28;19941;-66
2021/09/13 07:39:25;;;;;;;;;;;;;;;19.90;100.00;101032.75;5090106;28;20319;-66
2021/09/13 07:41:51;;;;;;;;;;;;;;;20.03;100.00;101028.56;5090916;28;19982;-67
2021/09/13 07:44:17;;;;;;;;;;;;;;;20.26;100.00;101033.25;5090767;28;20024;-67
2021/09/13 07:46:44;;;;;;;;;;;;;;;20.34;100.00;101030.47;5071654;28;20023;-67
2021/09/13 07:49:10;;;;;;;;;;;;;;;20.15;100.00;101029.88;5090687;28;20359;-67
2021/09/13 07:51:37;;;;;;;;;;;;;;;19.98;100.00;101039.28;5091070;28;20011;-66
2021/09/13 07:54:05;;;;;;;;;;;;;;;20.50;100.00;101040.53;5090336;28;20015;-66
2021/09/13 07:56:31;;;;;;;;;;;;;;;20.89;100.00;101037.66;5090160;28;20007;-66
2021/09/13 07:58:58;;;;;;;;;;;;;;;20.85;100.00;101041.00;5089955;28;19986;-66
2021/09/13 08:01:24;;;;;;;;;;;;;;;21.40;100.00;101044.44;5089972;28;19955;-67
2021/09/13 08:03:50;;;;;;;;;;;;;;;21.64;100.00;101037.00;5089912;28;20027;-67
2021/09/13 08:06:17;;;;;;;;;;;;;;;21.35;100.00;101049.69;5090953;28;20024;-67
2021/09/13 08:08:43;;;;;;;;;;;;;;;21.34;100.00;101050.72;5090402;28;20394;-67
2021/09/13 08:11:11;;;;;;;;;;;;;;;21.36;100.00;101056.91;5072384;28;19955;-67
2021/09/13 08:13:39;;;;;;;;;;;;;;;20.93;100.00;101057.47;5090540;28;19924;-66
2021/09/13 08:16:07;;;;;;;;;;;;;;;21.40;100.00;101055.50;5090197;28;19974;-67
2021/09/13 08:18:34;;;;;;;;;;;;;;;21.42;100.00;101061.69;5089791;28;19924;-67
2021/09/13 08:21:00;;;;;;;;;;;;;;;21.66;100.00;101054.22;5072618;28;19924;-66
2021/09/13 08:23:33;;;;;;;;;;;;;;;22.12;100.00;101051.22;5090578;28;19924;-66
2021/09/13 08:25:59;;;;;;;;;;;;;;;22.06;100.00;101052.88;5072391;28;20020;-66
2021/09/13 08:28:34;;;;;;;;;;;;;;;21.88;100.00;101061.53;5088509;28;20367;-66
2021/09/13 08:31:00;;;;;;;;;;;;;;;21.50;100.00;101060.75;5088534;28;20310;-66
2021/09/13 08:33:27;;;;;;;;;;;;;;;21.24;100.00;101068.44;5091801;28;20360;-66
2021/09/13 08:35:54;;;;;;;;;;;;;;;21.48;100.00;101068.38;5089290;28;19930;-67
2021/09/13 08:38:20;;;;;;;;;;;;;;;21.96;100.00;101074.41;5093924;28;20345;-66
2021/09/13 08:40:47;;;;;;;;;;;;;;;21.92;100.00;101075.84;5092725;28;19924;-66
2021/09/13 08:43:14;;;;;;;;;;;;;;;21.53;100.00;101065.91;5093559;28;20022;-66
2021/09/13 08:45:44;;;;;;;;;;;;;;;21.37;100.00;101086.25;5094189;28;19992;-65
2021/09/13 08:48:14;;;;;;;;;;;;;;;21.43;100.00;101085.47;5093441;28;19928;-65
2021/09/13 08:51:04;;;;;;;;;;;;;;;21.65;100.00;101092.03;5094150;28;20341;-66
2021/09/13 08:53:33;;;;;;;;;;;;;;;21.52;100.00;101084.34;5093519;28;20283;-66
2021/09/13 08:56:02;;;;;;;;;;;;;;;21.36;100.00;101093.66;5094072;28;19936;-66
2021/09/13 08:58:29;;;;;;;;;;;;;;;21.16;100.00;101085.03;5093417;28;19924;-67
2021/09/13 09:00:57;;;;;;;;;;;;;;;21.13;100.00;101090.94;5093224;28;20391;-67
2021/09/13 09:03:23;;;;;;;;;;;;;;;21.16;100.00;101092.47;5092272;28;20023;-67
2021/09/13 09:05:52;;;;;;;;;;;;;;;21.36;100.00;101090.06;5091926;28;19930;-66
2021/09/13 09:08:24;;;;;;;;;;;;;;;21.40;100.00;101096.91;5093130;28;19936;-66
2021/09/13 09:10:53;;;;;;;;;;;;;;;21.36;100.00;101101.09;5093544;28;19932;-67
2021/09/13 09:13:19;;;;;;;;;;;;;;;21.45;100.00;101110.19;5075587;28;19934;-67
2021/09/13 09:15:53;;;;;;;;;;;;;;;21.33;100.00;101099.56;5093771;28;20014;-67
2021/09/13 09:18:22;;;;;;;;;;;;;;;21.65;100.00;101105.00;5092561;28;20049;-67
2021/09/13 09:20:48;;;;;;;;;;;;;;;21.60;100.00;101105.56;5093616;28;19931;-67
2021/09/13 09:23:15;;;;;;;;;;;;;;;21.63;100.00;101109.84;5092502;28;20571;-68
2021/09/13 09:25:41;;;;;;;;;;;;;;;21.65;100.00;101110.53;5092909;28;20024;-67
2021/09/13 09:28:11;;;;;;;;;;;;;;;21.34;100.00;101106.81;5093010;28;19928;-67
2021/09/13 09:30:38;;;;;;;;;;;;;;;21.15;100.00;101112.84;5092953;28;19931;-67
2021/09/13 09:33:07;;;;;;;;;;;;;;;20.35;100.00;101120.38;5093391;28;20010;-67
2021/09/13 09:35:41;;;;;;;;;;;;;;;19.86;100.00;101133.31;5092953;28;19934;-67
2021/09/13 09:38:08;;;;;;;;;;;;;;;19.54;100.00;101128.69;5092794;28;20276;-75
2021/09/13 09:40:34;;;;;;;;;;;;;;;19.32;100.00;101124.75;5092593;28;19935;-74
2021/09/13 09:43:03;;;;;;;;;;;;;;;19.63;100.00;101122.16;5074432;28;19924;-75
2021/09/13 09:45:30;;;;;;;;;;;;;;;20.68;100.00;101120.22;5092813;28;20014;-75
2021/09/13 09:48:06;;;;;;;;;;;;;;;20.58;100.00;101115.78;5090362;28;19928;-66
2021/09/13 09:50:33;;;;;;;;;;;;;;;20.32;100.00;101131.78;5091569;28;19924;-66
2021/09/13 09:53:14;;;;;;;;;;;;;;;19.78;100.00;101133.31;5092358;28;20018;-67
2021/09/13 09:55:40;;;;;;;;;;;;;;;19.46;100.00;101140.56;5091975;28;19966;-67
2021/09/13 09:58:10;;;;;;;;;;;;;;;19.09;100.00;101141.09;5092182;28;19925;-66
2021/09/13 10:00:37;;;;;;;;;;;;;;;18.83;100.00;101140.16;5092591;28;19981;-66
2021/09/13 10:03:04;;;;;;;;;;;;;;;18.68;100.00;101139.09;5092959;28;19935;-66
2021/09/13 10:05:31;;;;;;;;;;;;;;;18.62;100.00;101150.78;5092108;28;20027;-66
2021/09/13 10:07:58;;;;;;;;;;;;;;;18.54;100.00;101155.19;5092498;28;19989;-66
2021/09/13 10:10:28;;;;;;;;;;;;;;;18.37;100.00;101150.66;5091709;28;20144;-66
2021/09/13 10:12:55;;;;;;;;;;;;;;;18.33;100.00;101155.66;5091745;28;19939;-66
2021/09/13 10:15:22;;;;;;;;;;;;;;;18.39;100.00;101163.22;5092176;28;20079;-66
2021/09/13 10:17:48;;;;;;;;;;;;;;;18.42;100.00;101162.03;5091904;28;20027;-66
2021/09/13 10:20:14;;;;;;;;;;;;;;;18.53;100.00;101163.63;5091375;28;20026;-66
2021/09/13 10:22:42;;;;;;;;;;;;;;;18.69;100.00;101160.94;5092373;28;19924;-67
2021/09/13 10:25:09;;;;;;;;;;;;;;;18.47;100.00;101158.81;5091880;28;20015;-66
2021/09/13 10:27:38;;;;;;;;;;;;;;;18.48;100.00;101166.00;5091995;28;19931;-66
2021/09/13 10:30:11;;;;;;;;;;;;;;;18.50;100.00;101162.06;5091358;28;19932;-67
2021/09/13 10:32:39;;;;;;;;;;;;;;;18.13;100.00;101165.16;5091386;28;19924;-67
2021/09/13 10:35:06;;;;;;;;;;;;;;;17.89;100.00;101162.09;5091116;28;20311;-67
2021/09/13 10:37:39;;;;;;;;;;;;;;;17.96;100.00;101172.44;5091295;28;20018;-67
2021/09/13 10:40:06;;;;;;;;;;;;;;;18.00;100.00;101158.22;5089912;28;20035;-67
2021/09/13 10:42:37;;;;;;;;;;;;;;;18.21;100.00;101163.31;5090622;28;19932;-67
2021/09/13 10:45:14;;;;;;;;;;;;;;;18.34;100.00;101167.50;5090518;28;21583;-69
2021/09/13 10:47:41;;;;;;;;;;;;;;;18.61;100.00;101173.78;5090777;28;19935;-70
2021/09/13 10:50:21;;;;;;;;;;;;;;;18.79;100.00;101166.28;5091497;28;20007;-70
2021/09/13 10:52:48;;;;;;;;;;;;;;;18.93;100.00;101167.53;5091954;28;19974;-69
2021/09/13 10:55:28;;;;;;;;;;;;;;;18.87;100.00;101162.69;5091028;28;19924;-69
2021/09/13 10:57:57;;;;;;;;;;;;;;;18.73;100.00;101158.69;5091559;28;19928;-70
2021/09/13 11:00:52;;;;;;;;;;;;;;;18.56;100.00;101166.91;5091841;28;19932;-69
2021/09/13 11:03:46;;;;;;;;;;;;;;;18.47;100.00;101159.66;5073514;28;19982;-69
2021/09/13 11:06:30;;;;;;;;;;;;;;;18.35;100.00;101163.72;5091584;28;19928;-69
2021/09/13 11:08:59;;;;;;;;;;;;;;;18.46;100.00;101159.81;5091422;28;19928;-69
2021/09/13 11:11:26;;;;;;;;;;;;;;;18.64;100.00;101162.44;5073599;28;19924;-69
2021/09/13 11:13:58;;;;;;;;;;;;;;;18.81;100.00;101160.59;5091442;28;20027;-70
2021/09/13 11:16:25;;;;;;;;;;;;;;;19.01;100.00;101161.19;5091557;28;19928;-69
2021/09/13 11:18:51;;;;;;;;;;;;;;;19.26;100.00;101166.72;5091311;28;19993;-70
2021/09/13 11:21:19;;;;;;;;;;;;;;;19.52;100.00;101167.41;5091313;28;19963;-70
2021/09/13 11:23:46;;;;;;;;;;;;;;;19.70;100.00;101167.22;5090996;28;19930;-69
2021/09/13 11:26:15;;;;;;;;;;;;;;;19.89;100.00;101160.50;5090391;28;20370;-70
2021/09/13 11:28:54;;;;;;;;;;;;;;;20.35;100.00;101153.47;5091076;28;20023;-69
2021/09/13 11:31:30;;;;;;;;;;;;;;;20.38;100.00;101159.47;5090895;28;19963;-69
2021/09/13 11:33:57;;;;;;;;;;;;;;;20.11;100.00;101158.03;5091421;28;20344;-69
2021/09/13 11:36:24;;;;;;;;;;;;;;;19.53;100.00;101155.34;5091292;28;19924;-69
2021/09/13 11:38:55;;;;;;;;;;;;;;;19.25;100.00;101157.59;5089759;28;19924;-70
2021/09/13 11:41:22;;;;;;;;;;;;;;;19.11;100.00;101170.16;5089306;28;19924;-70
2021/09/13 11:43:56;;;;;;;;;;;;;;;19.04;100.00;101169.97;5089107;28;20031;-70
2021/09/13 11:46:22;;;;;;;;;;;;;;;18.96;100.00;101166.34;5089451;28;19924;-69
2021/09/13 11:48:50;;;;;;;;;;;;;;;18.82;100.00;101168.69;5089047;28;20015;-69
2021/09/13 11:51:16;;;;;;;;;;;;;;;18.72;100.00;101162.50;5089137;28;19974;-70
2021/09/13 11:54:04;;;;;;;;;;;;;;;18.53;100.00;101175.50;5090001;28;20475;-69
2021/09/13 11:56:31;;;;;;;;;;;;;;;18.35;100.00;101182.97;5090950;28;20483;-70
2021/09/13 11:58:57;;;;;;;;;;;;;;;18.27;100.00;101181.03;5090870;28;19970;-69
2021/09/13 12:01:23;;;;;;;;;;;;;;;18.11;100.00;101170.81;5090542;28;19935;-69
2021/09/13 12:04:15;;;;;;;;;;;;;;;18.06;100.00;101178.69;5090477;28;19924;-70
2021/09/13 12:06:42;;;;;;;;;;;;;;;17.88;100.00;101181.47;5090506;28;20334;-69
2021/09/13 12:09:08;;;;;;;;;;;;;;;17.87;100.00;101177.84;5076439;28;20020;-69
2021/09/13 12:11:35;;;;;;;;;;;;;;;18.05;100.00;101169.59;5094742;28;19924;-69
2021/09/13 12:14:01;;;;;;;;;;;;;;;18.15;100.00;101172.22;5094247;28;20007;-69
2021/09/13 12:16:28;;;;;;;;;;;;;;;18.26;100.00;101172.97;5094703;28;20027;-75
2021/09/13 12:18:54;;;;;;;;;;;;;;;18.28;100.00;101171.78;5094800;28;19928;-75
2021/09/13 12:21:21;;;;;;;;;;;;;;;18.36;100.00;101177.31;5093790;28;19939;-69
2021/09/13 12:23:56;;;;;;;;;;;;;;;18.43;100.00;101179.41;5094335;28;20364;-69
2021/09/13 12:26:24;;;;;;;;;;;;;;;18.42;100.00;101181.25;5094175;28;19924;-69
2021/09/13 12:28:51;;;;;;;;;;;;;;;18.55;100.00;101172.56;5094491;28;20280;-69
2021/09/13 12:31:25;;;;;;;;;;;;;;;18.75;100.00;101173.16;5093608;28;19927;-75
2021/09/13 12:33:51;;;;;;;;;;;;;;;18.76;100.00;101172.13;5094498;28;19928;-75
2021/09/13 12:36:18;;;;;;;;;;;;;;;18.54;100.00;101171.69;5094192;28;20327;-75
2021/09/13 12:38:45;;;;;;;;;;;;;;;18.42;100.00;101164.78;5075183;28;20027;-68